sensor_id;sensor_type;location;lat;lon;timestamp;P1;durP1;ratioP1;P2;durP2;ratioP2
82806;SDS011;72563;44.816;20.484;2024-03-02T00:00:23;21.35;;;10.45;;
82806;SDS011;72563;44.816;20.484;2024-03-02T00:02:50;16.98;;;8.05;;
82806;SDS011;72563;44.816;20.484;2024-03-02T00:05:18;20.77;;;9.50;;
82806;SDS011;72563;44.816;20.484;2024-03-02T00:07:45;15.95;;;7.97;;
82806;SDS011;72563;44.816;20.484;2024-03-02T00:10:16;20.10;;;9.65;;
82806;SDS011;72563;44.816;20.484;2024-03-02T00:12:45;19.08;;;8.50;;
82806;SDS011;72563;44.816;20.484;2024-03-02T00:15:26;14.45;;;6.53;;
82806;SDS011;72563;44.816;20.484;2024-03-02T00:18:06;20.10;;;9.18;;
82806;SDS011;72563;44.816;20.484;2024-03-02T00:20:33;20.13;;;8.75;;
82806;SDS011;72563;44.816;20.484;2024-03-02T00:23:05;19.80;;;9.23;;
82806;SDS011;72563;44.816;20.484;2024-03-02T00:25:42;20.40;;;9.35;;
82806;SDS011;72563;44.816;20.484;2024-03-02T00:31:04;21.15;;;9.75;;
82806;SDS011;72563;44.816;20.484;2024-03-02T00:36:01;19.27;;;8.95;;
82806;SDS011;72563;44.816;20.484;2024-03-02T00:38:29;23.08;;;9.60;;
82806;SDS011;72563;44.816;20.484;2024-03-02T00:41:00;19.00;;;8.68;;
82806;SDS011;72563;44.816;20.484;2024-03-02T00:46:04;20.23;;;9.75;;
82806;SDS011;72563;44.816;20.484;2024-03-02T00:48:29;16.95;;;7.72;;
82806;SDS011;72563;44.816;20.484;2024-03-02T00:51:01;18.83;;;8.85;;
82806;SDS011;72563;44.816;20.484;2024-03-02T00:53:29;20.20;;;9.48;;
82806;SDS011;72563;44.816;20.484;2024-03-02T00:55:56;16.48;;;7.32;;
82806;SDS011;72563;44.816;20.484;2024-03-02T00:58:22;17.48;;;8.98;;
82806;SDS011;72563;44.816;20.484;2024-03-02T01:00:47;17.75;;;9.13;;
82806;SDS011;72563;44.816;20.484;2024-03-02T01:03:13;20.88;;;8.30;;
82806;SDS011;72563;44.816;20.484;2024-03-02T01:05:42;15.48;;;8.02;;
82806;SDS011;72563;44.816;20.484;2024-03-02T01:08:08;18.17;;;8.95;;
82806;SDS011;72563;44.816;20.484;2024-03-02T01:10:34;17.60;;;8.15;;
82806;SDS011;72563;44.816;20.484;2024-03-02T01:13:00;15.38;;;7.30;;
82806;SDS011;72563;44.816;20.484;2024-03-02T01:15:27;16.60;;;7.70;;
82806;SDS011;72563;44.816;20.484;2024-03-02T01:17:52;16.02;;;8.13;;
82806;SDS011;72563;44.816;20.484;2024-03-02T01:20:18;17.23;;;8.13;;
82806;SDS011;72563;44.816;20.484;2024-03-02T01:22:44;15.27;;;7.38;;
82806;SDS011;72563;44.816;20.484;2024-03-02T01:25:11;17.38;;;6.95;;
82806;SDS011;72563;44.816;20.484;2024-03-02T01:27:37;14.10;;;6.60;;
82806;SDS011;72563;44.816;20.484;2024-03-02T01:30:03;14.65;;;6.80;;
82806;SDS011;72563;44.816;20.484;2024-03-02T01:32:30;14.70;;;6.95;;
82806;SDS011;72563;44.816;20.484;2024-03-02T01:34:57;18.17;;;7.32;;
82806;SDS011;72563;44.816;20.484;2024-03-02T01:37:23;14.00;;;6.95;;
82806;SDS011;72563;44.816;20.484;2024-03-02T01:39:49;11.93;;;5.93;;
82806;SDS011;72563;44.816;20.484;2024-03-02T01:42:14;14.57;;;6.70;;
82806;SDS011;72563;44.816;20.484;2024-03-02T01:44:40;12.82;;;6.22;;
82806;SDS011;72563;44.816;20.484;2024-03-02T01:47:05;12.95;;;6.20;;
82806;SDS011;72563;44.816;20.484;2024-03-02T01:49:31;11.80;;;6.07;;
82806;SDS011;72563;44.816;20.484;2024-03-02T01:51:59;13.95;;;5.88;;
82806;SDS011;72563;44.816;20.484;2024-03-02T01:54:24;13.70;;;6.50;;
82806;SDS011;72563;44.816;20.484;2024-03-02T01:56:50;12.95;;;6.22;;
82806;SDS011;72563;44.816;20.484;2024-03-02T01:59:16;13.73;;;6.28;;
82806;SDS011;72563;44.816;20.484;2024-03-02T02:01:42;13.70;;;6.28;;
82806;SDS011;72563;44.816;20.484;2024-03-02T02:04:12;15.02;;;6.68;;
82806;SDS011;72563;44.816;20.484;2024-03-02T02:06:38;13.23;;;6.15;;
82806;SDS011;72563;44.816;20.484;2024-03-02T02:09:04;11.85;;;6.20;;
82806;SDS011;72563;44.816;20.484;2024-03-02T02:11:34;11.07;;;5.32;;
82806;SDS011;72563;44.816;20.484;2024-03-02T02:14:00;12.02;;;5.90;;
82806;SDS011;72563;44.816;20.484;2024-03-02T02:16:26;12.98;;;5.88;;
82806;SDS011;72563;44.816;20.484;2024-03-02T02:18:51;11.63;;;6.03;;
82806;SDS011;72563;44.816;20.484;2024-03-02T02:21:17;12.02;;;5.45;;
82806;SDS011;72563;44.816;20.484;2024-03-02T02:23:42;12.15;;;5.63;;
82806;SDS011;72563;44.816;20.484;2024-03-02T02:26:11;10.52;;;5.00;;
82806;SDS011;72563;44.816;20.484;2024-03-02T02:28:37;11.43;;;5.25;;
82806;SDS011;72563;44.816;20.484;2024-03-02T02:31:03;12.18;;;6.05;;
82806;SDS011;72563;44.816;20.484;2024-03-02T02:33:29;12.55;;;5.38;;
82806;SDS011;72563;44.816;20.484;2024-03-02T02:35:57;11.00;;;4.93;;
82806;SDS011;72563;44.816;20.484;2024-03-02T02:38:23;12.73;;;5.25;;
82806;SDS011;72563;44.816;20.484;2024-03-02T02:40:48;12.32;;;5.22;;
82806;SDS011;72563;44.816;20.484;2024-03-02T02:43:14;12.20;;;5.20;;
82806;SDS011;72563;44.816;20.484;2024-03-02T02:45:40;10.15;;;4.50;;
82806;SDS011;72563;44.816;20.484;2024-03-02T02:48:05;12.60;;;5.65;;
82806;SDS011;72563;44.816;20.484;2024-03-02T02:50:31;10.80;;;4.93;;
82806;SDS011;72563;44.816;20.484;2024-03-02T02:52:57;10.00;;;4.85;;
82806;SDS011;72563;44.816;20.484;2024-03-02T02:55:22;11.07;;;4.95;;
82806;SDS011;72563;44.816;20.484;2024-03-02T02:57:49;10.98;;;4.95;;
82806;SDS011;72563;44.816;20.484;2024-03-02T03:00:17;10.60;;;4.57;;
82806;SDS011;72563;44.816;20.484;2024-03-02T03:02:47;9.27;;;4.65;;
82806;SDS011;72563;44.816;20.484;2024-03-02T03:05:14;9.85;;;4.75;;
82806;SDS011;72563;44.816;20.484;2024-03-02T03:07:41;9.93;;;4.60;;
82806;SDS011;72563;44.816;20.484;2024-03-02T03:10:13;11.55;;;4.47;;
82806;SDS011;72563;44.816;20.484;2024-03-02T03:12:38;10.00;;;4.70;;
82806;SDS011;72563;44.816;20.484;2024-03-02T03:15:06;9.50;;;4.60;;
82806;SDS011;72563;44.816;20.484;2024-03-02T03:17:33;10.15;;;4.55;;
82806;SDS011;72563;44.816;20.484;2024-03-02T03:19:59;10.13;;;4.63;;
82806;SDS011;72563;44.816;20.484;2024-03-02T03:22:26;9.75;;;4.40;;
82806;SDS011;72563;44.816;20.484;2024-03-02T03:24:52;10.30;;;4.70;;
82806;SDS011;72563;44.816;20.484;2024-03-02T03:27:18;11.40;;;4.53;;
82806;SDS011;72563;44.816;20.484;2024-03-02T03:29:44;9.32;;;4.57;;
82806;SDS011;72563;44.816;20.484;2024-03-02T03:32:11;9.77;;;4.60;;
82806;SDS011;72563;44.816;20.484;2024-03-02T03:34:37;9.05;;;3.92;;
82806;SDS011;72563;44.816;20.484;2024-03-02T03:37:03;10.30;;;4.82;;
82806;SDS011;72563;44.816;20.484;2024-03-02T03:39:37;8.00;;;3.20;;
82806;SDS011;72563;44.816;20.484;2024-03-02T03:42:02;7.68;;;3.28;;
82806;SDS011;72563;44.816;20.484;2024-03-02T03:44:28;8.68;;;4.10;;
82806;SDS011;72563;44.816;20.484;2024-03-02T03:46:54;7.78;;;3.55;;
82806;SDS011;72563;44.816;20.484;2024-03-02T03:49:19;9.85;;;3.63;;
82806;SDS011;72563;44.816;20.484;2024-03-02T03:51:45;8.82;;;3.63;;
82806;SDS011;72563;44.816;20.484;2024-03-02T03:54:11;7.22;;;3.30;;
82806;SDS011;72563;44.816;20.484;2024-03-02T03:56:37;9.88;;;3.85;;
82806;SDS011;72563;44.816;20.484;2024-03-02T03:59:02;9.05;;;3.35;;
82806;SDS011;72563;44.816;20.484;2024-03-02T04:01:29;7.63;;;3.63;;
82806;SDS011;72563;44.816;20.484;2024-03-02T04:03:56;7.68;;;3.40;;
82806;SDS011;72563;44.816;20.484;2024-03-02T04:06:22;7.00;;;3.17;;
82806;SDS011;72563;44.816;20.484;2024-03-02T04:08:48;7.47;;;3.30;;
82806;SDS011;72563;44.816;20.484;2024-03-02T04:11:14;7.88;;;3.67;;
82806;SDS011;72563;44.816;20.484;2024-03-02T04:13:39;9.05;;;3.72;;
82806;SDS011;72563;44.816;20.484;2024-03-02T04:16:06;7.05;;;2.75;;
82806;SDS011;72563;44.816;20.484;2024-03-02T04:18:31;7.70;;;3.40;;
82806;SDS011;72563;44.816;20.484;2024-03-02T04:20:58;8.10;;;3.28;;
82806;SDS011;72563;44.816;20.484;2024-03-02T04:23:25;7.63;;;3.45;;
82806;SDS011;72563;44.816;20.484;2024-03-02T04:25:51;8.93;;;3.88;;
82806;SDS011;72563;44.816;20.484;2024-03-02T04:28:16;8.52;;;4.15;;
82806;SDS011;72563;44.816;20.484;2024-03-02T04:30:42;7.07;;;3.28;;
82806;SDS011;72563;44.816;20.484;2024-03-02T04:33:10;7.57;;;3.50;;
82806;SDS011;72563;44.816;20.484;2024-03-02T04:38:01;7.13;;;3.00;;
82806;SDS011;72563;44.816;20.484;2024-03-02T04:40:28;7.88;;;2.88;;
82806;SDS011;72563;44.816;20.484;2024-03-02T04:42:54;7.40;;;3.17;;
82806;SDS011;72563;44.816;20.484;2024-03-02T04:45:19;7.00;;;3.13;;
82806;SDS011;72563;44.816;20.484;2024-03-02T04:47:45;7.13;;;3.20;;
82806;SDS011;72563;44.816;20.484;2024-03-02T04:50:11;8.52;;;3.25;;
82806;SDS011;72563;44.816;20.484;2024-03-02T04:52:37;6.75;;;3.22;;
82806;SDS011;72563;44.816;20.484;2024-03-02T04:55:04;6.97;;;3.08;;
82806;SDS011;72563;44.816;20.484;2024-03-02T04:57:42;7.63;;;3.50;;
82806;SDS011;72563;44.816;20.484;2024-03-02T05:00:08;7.65;;;3.40;;
82806;SDS011;72563;44.816;20.484;2024-03-02T05:02:34;8.48;;;3.47;;
82806;SDS011;72563;44.816;20.484;2024-03-02T05:05:00;7.40;;;3.30;;
82806;SDS011;72563;44.816;20.484;2024-03-02T05:07:26;8.57;;;2.78;;
82806;SDS011;72563;44.816;20.484;2024-03-02T05:09:51;6.68;;;3.28;;
82806;SDS011;72563;44.816;20.484;2024-03-02T05:12:17;7.32;;;3.13;;
82806;SDS011;72563;44.816;20.484;2024-03-02T05:15:01;6.50;;;2.72;;
82806;SDS011;72563;44.816;20.484;2024-03-02T05:17:27;6.97;;;2.70;;
82806;SDS011;72563;44.816;20.484;2024-03-02T05:19:53;8.38;;;3.58;;
82806;SDS011;72563;44.816;20.484;2024-03-02T05:22:20;7.57;;;3.40;;
82806;SDS011;72563;44.816;20.484;2024-03-02T05:24:45;6.55;;;2.88;;
82806;SDS011;72563;44.816;20.484;2024-03-02T05:27:11;6.35;;;2.55;;
82806;SDS011;72563;44.816;20.484;2024-03-02T05:29:36;5.93;;;2.65;;
82806;SDS011;72563;44.816;20.484;2024-03-02T05:32:02;7.05;;;2.75;;
82806;SDS011;72563;44.816;20.484;2024-03-02T05:34:28;5.40;;;2.30;;
82806;SDS011;72563;44.816;20.484;2024-03-02T05:36:54;6.00;;;2.28;;
82806;SDS011;72563;44.816;20.484;2024-03-02T05:39:22;6.55;;;2.70;;
82806;SDS011;72563;44.816;20.484;2024-03-02T05:41:51;6.95;;;2.70;;
82806;SDS011;72563;44.816;20.484;2024-03-02T05:44:16;5.78;;;2.92;;
82806;SDS011;72563;44.816;20.484;2024-03-02T05:46:44;6.43;;;2.75;;
82806;SDS011;72563;44.816;20.484;2024-03-02T05:49:10;6.15;;;2.70;;
82806;SDS011;72563;44.816;20.484;2024-03-02T05:51:36;5.93;;;2.65;;
82806;SDS011;72563;44.816;20.484;2024-03-02T05:54:01;7.70;;;2.80;;
82806;SDS011;72563;44.816;20.484;2024-03-02T05:56:28;6.78;;;3.03;;
82806;SDS011;72563;44.816;20.484;2024-03-02T05:58:54;6.22;;;2.75;;
82806;SDS011;72563;44.816;20.484;2024-03-02T06:01:44;7.25;;;3.00;;
82806;SDS011;72563;44.816;20.484;2024-03-02T06:04:17;7.50;;;3.13;;
82806;SDS011;72563;44.816;20.484;2024-03-02T06:06:45;7.00;;;2.70;;
82806;SDS011;72563;44.816;20.484;2024-03-02T06:09:10;6.93;;;3.40;;
82806;SDS011;72563;44.816;20.484;2024-03-02T06:11:40;8.38;;;3.55;;
82806;SDS011;72563;44.816;20.484;2024-03-02T06:14:06;7.32;;;2.70;;
82806;SDS011;72563;44.816;20.484;2024-03-02T06:16:33;4.28;;;1.75;;
82806;SDS011;72563;44.816;20.484;2024-03-02T06:18:59;6.75;;;2.83;;
82806;SDS011;72563;44.816;20.484;2024-03-02T06:21:26;5.43;;;2.25;;
82806;SDS011;72563;44.816;20.484;2024-03-02T06:23:52;5.43;;;2.33;;
82806;SDS011;72563;44.816;20.484;2024-03-02T06:26:21;6.20;;;2.45;;
82806;SDS011;72563;44.816;20.484;2024-03-02T06:28:47;6.22;;;2.50;;
82806;SDS011;72563;44.816;20.484;2024-03-02T06:31:12;5.60;;;2.30;;
82806;SDS011;72563;44.816;20.484;2024-03-02T06:33:38;5.80;;;2.10;;
82806;SDS011;72563;44.816;20.484;2024-03-02T06:36:05;5.10;;;2.10;;
82806;SDS011;72563;44.816;20.484;2024-03-02T06:38:34;5.50;;;2.35;;
82806;SDS011;72563;44.816;20.484;2024-03-02T06:41:00;4.95;;;2.00;;
82806;SDS011;72563;44.816;20.484;2024-03-02T06:43:26;5.50;;;2.13;;
82806;SDS011;72563;44.816;20.484;2024-03-02T06:45:51;6.05;;;2.20;;
82806;SDS011;72563;44.816;20.484;2024-03-02T06:48:17;5.53;;;2.10;;
82806;SDS011;72563;44.816;20.484;2024-03-02T06:50:49;5.93;;;2.40;;
82806;SDS011;72563;44.816;20.484;2024-03-02T06:53:15;5.03;;;1.95;;
82806;SDS011;72563;44.816;20.484;2024-03-02T06:55:46;5.72;;;2.10;;
82806;SDS011;72563;44.816;20.484;2024-03-02T06:58:12;5.05;;;2.30;;
82806;SDS011;72563;44.816;20.484;2024-03-02T07:03:05;6.18;;;2.08;;
82806;SDS011;72563;44.816;20.484;2024-03-02T07:05:32;8.95;;;2.50;;
82806;SDS011;72563;44.816;20.484;2024-03-02T07:07:57;5.97;;;2.28;;
82806;SDS011;72563;44.816;20.484;2024-03-02T07:10:23;5.88;;;1.90;;
82806;SDS011;72563;44.816;20.484;2024-03-02T07:12:49;6.20;;;2.70;;
82806;SDS011;72563;44.816;20.484;2024-03-02T07:15:14;6.35;;;2.50;;
82806;SDS011;72563;44.816;20.484;2024-03-02T07:17:52;6.57;;;2.30;;
82806;SDS011;72563;44.816;20.484;2024-03-02T07:20:18;5.75;;;2.53;;
82806;SDS011;72563;44.816;20.484;2024-03-02T07:22:45;7.25;;;2.50;;
82806;SDS011;72563;44.816;20.484;2024-03-02T07:25:11;8.38;;;2.50;;
82806;SDS011;72563;44.816;20.484;2024-03-02T07:27:37;6.30;;;2.63;;
82806;SDS011;72563;44.816;20.484;2024-03-02T07:30:02;7.38;;;3.08;;
82806;SDS011;72563;44.816;20.484;2024-03-02T07:32:29;5.60;;;2.50;;
82806;SDS011;72563;44.816;20.484;2024-03-02T07:34:54;7.97;;;2.58;;
82806;SDS011;72563;44.816;20.484;2024-03-02T07:37:22;7.55;;;2.88;;
82806;SDS011;72563;44.816;20.484;2024-03-02T07:39:48;7.65;;;3.15;;
82806;SDS011;72563;44.816;20.484;2024-03-02T07:42:16;11.15;;;3.97;;
82806;SDS011;72563;44.816;20.484;2024-03-02T07:44:43;8.18;;;3.28;;
82806;SDS011;72563;44.816;20.484;2024-03-02T07:47:12;6.70;;;2.50;;
82806;SDS011;72563;44.816;20.484;2024-03-02T07:49:38;6.50;;;2.95;;
82806;SDS011;72563;44.816;20.484;2024-03-02T07:52:04;6.63;;;2.47;;
82806;SDS011;72563;44.816;20.484;2024-03-02T07:54:30;6.13;;;2.38;;
82806;SDS011;72563;44.816;20.484;2024-03-02T07:56:58;6.47;;;2.40;;
82806;SDS011;72563;44.816;20.484;2024-03-02T07:59:27;6.15;;;2.30;;
82806;SDS011;72563;44.816;20.484;2024-03-02T08:01:53;6.03;;;2.22;;
82806;SDS011;72563;44.816;20.484;2024-03-02T08:04:20;5.63;;;2.47;;
82806;SDS011;72563;44.816;20.484;2024-03-02T08:06:48;6.05;;;2.10;;
82806;SDS011;72563;44.816;20.484;2024-03-02T08:09:13;5.80;;;2.13;;
82806;SDS011;72563;44.816;20.484;2024-03-02T08:11:41;8.25;;;2.65;;
82806;SDS011;72563;44.816;20.484;2024-03-02T08:14:08;6.47;;;2.60;;
82806;SDS011;72563;44.816;20.484;2024-03-02T08:16:33;6.85;;;2.78;;
82806;SDS011;72563;44.816;20.484;2024-03-02T08:18:59;7.57;;;2.38;;
82806;SDS011;72563;44.816;20.484;2024-03-02T08:21:26;6.97;;;2.65;;
82806;SDS011;72563;44.816;20.484;2024-03-02T08:23:55;6.75;;;2.90;;
82806;SDS011;72563;44.816;20.484;2024-03-02T08:26:21;6.47;;;2.40;;
82806;SDS011;72563;44.816;20.484;2024-03-02T08:28:48;6.43;;;2.40;;
82806;SDS011;72563;44.816;20.484;2024-03-02T08:31:14;6.63;;;2.22;;
82806;SDS011;72563;44.816;20.484;2024-03-02T08:33:39;6.10;;;2.22;;
82806;SDS011;72563;44.816;20.484;2024-03-02T08:36:07;6.80;;;2.08;;
82806;SDS011;72563;44.816;20.484;2024-03-02T08:38:34;5.10;;;2.08;;
82806;SDS011;72563;44.816;20.484;2024-03-02T08:41:00;5.13;;;2.17;;
82806;SDS011;72563;44.816;20.484;2024-03-02T08:43:26;5.97;;;2.33;;
82806;SDS011;72563;44.816;20.484;2024-03-02T08:45:52;5.60;;;1.92;;
82806;SDS011;72563;44.816;20.484;2024-03-02T08:48:21;3.92;;;1.60;;
82806;SDS011;72563;44.816;20.484;2024-03-02T08:50:47;6.90;;;2.00;;
82806;SDS011;72563;44.816;20.484;2024-03-02T08:53:13;4.53;;;1.73;;
82806;SDS011;72563;44.816;20.484;2024-03-02T08:55:43;7.43;;;2.08;;
82806;SDS011;72563;44.816;20.484;2024-03-02T08:58:12;5.85;;;1.88;;
82806;SDS011;72563;44.816;20.484;2024-03-02T09:00:39;6.20;;;2.40;;
82806;SDS011;72563;44.816;20.484;2024-03-02T09:03:07;5.72;;;2.17;;
82806;SDS011;72563;44.816;20.484;2024-03-02T09:05:33;5.28;;;1.70;;
82806;SDS011;72563;44.816;20.484;2024-03-02T09:07:59;5.35;;;2.33;;
82806;SDS011;72563;44.816;20.484;2024-03-02T09:10:24;6.03;;;2.00;;
82806;SDS011;72563;44.816;20.484;2024-03-02T09:12:50;6.10;;;2.50;;
82806;SDS011;72563;44.816;20.484;2024-03-02T09:15:15;7.20;;;2.40;;
82806;SDS011;72563;44.816;20.484;2024-03-02T09:17:41;6.03;;;2.20;;
82806;SDS011;72563;44.816;20.484;2024-03-02T09:20:07;5.97;;;2.42;;
82806;SDS011;72563;44.816;20.484;2024-03-02T09:22:33;5.55;;;2.10;;
82806;SDS011;72563;44.816;20.484;2024-03-02T09:24:58;6.47;;;2.30;;
82806;SDS011;72563;44.816;20.484;2024-03-02T09:27:25;6.85;;;2.50;;
82806;SDS011;72563;44.816;20.484;2024-03-02T09:29:56;5.43;;;2.30;;
82806;SDS011;72563;44.816;20.484;2024-03-02T09:32:28;5.32;;;2.17;;
82806;SDS011;72563;44.816;20.484;2024-03-02T09:37:21;5.88;;;2.20;;
82806;SDS011;72563;44.816;20.484;2024-03-02T09:39:47;6.55;;;2.05;;
82806;SDS011;72563;44.816;20.484;2024-03-02T09:42:12;6.25;;;2.50;;
82806;SDS011;72563;44.816;20.484;2024-03-02T09:44:38;6.57;;;2.08;;
82806;SDS011;72563;44.816;20.484;2024-03-02T09:47:04;6.05;;;2.33;;
82806;SDS011;72563;44.816;20.484;2024-03-02T09:49:32;5.65;;;2.47;;
82806;SDS011;72563;44.816;20.484;2024-03-02T09:51:58;6.93;;;2.70;;
82806;SDS011;72563;44.816;20.484;2024-03-02T09:54:28;8.85;;;4.75;;
82806;SDS011;72563;44.816;20.484;2024-03-02T09:56:54;11.05;;;5.10;;
82806;SDS011;72563;44.816;20.484;2024-03-02T09:59:19;10.23;;;5.50;;
82806;SDS011;72563;44.816;20.484;2024-03-02T10:01:58;10.95;;;4.40;;
82806;SDS011;72563;44.816;20.484;2024-03-02T10:04:25;9.23;;;4.60;;
82806;SDS011;72563;44.816;20.484;2024-03-02T10:07:08;10.60;;;4.95;;
82806;SDS011;72563;44.816;20.484;2024-03-02T10:09:42;8.10;;;4.35;;
82806;SDS011;72563;44.816;20.484;2024-03-02T10:12:11;8.18;;;3.95;;
82806;SDS011;72563;44.816;20.484;2024-03-02T10:14:37;7.38;;;3.72;;
82806;SDS011;72563;44.816;20.484;2024-03-02T10:17:04;9.68;;;4.90;;
82806;SDS011;72563;44.816;20.484;2024-03-02T10:19:35;6.13;;;3.20;;
82806;SDS011;72563;44.816;20.484;2024-03-02T10:22:02;7.43;;;3.15;;
82806;SDS011;72563;44.816;20.484;2024-03-02T10:24:42;11.55;;;2.90;;
82806;SDS011;72563;44.816;20.484;2024-03-02T10:27:15;7.45;;;3.05;;
82806;SDS011;72563;44.816;20.484;2024-03-02T10:29:45;8.93;;;4.22;;
82806;SDS011;72563;44.816;20.484;2024-03-02T10:32:12;9.80;;;4.30;;
82806;SDS011;72563;44.816;20.484;2024-03-02T10:34:42;9.55;;;3.90;;
82806;SDS011;72563;44.816;20.484;2024-03-02T10:37:10;11.48;;;4.43;;
82806;SDS011;72563;44.816;20.484;2024-03-02T10:39:37;6.63;;;3.33;;
82806;SDS011;72563;44.816;20.484;2024-03-02T10:42:05;6.93;;;2.88;;
82806;SDS011;72563;44.816;20.484;2024-03-02T10:44:32;6.85;;;2.92;;
82806;SDS011;72563;44.816;20.484;2024-03-02T10:47:01;6.75;;;3.33;;
82806;SDS011;72563;44.816;20.484;2024-03-02T10:49:31;6.07;;;2.80;;
82806;SDS011;72563;44.816;20.484;2024-03-02T10:52:00;7.68;;;3.00;;
82806;SDS011;72563;44.816;20.484;2024-03-02T10:54:26;6.07;;;2.47;;
82806;SDS011;72563;44.816;20.484;2024-03-02T10:57:00;6.07;;;2.60;;
82806;SDS011;72563;44.816;20.484;2024-03-02T11:02:02;6.32;;;2.95;;
82806;SDS011;72563;44.816;20.484;2024-03-02T11:04:29;6.45;;;2.45;;
82806;SDS011;72563;44.816;20.484;2024-03-02T11:07:00;7.22;;;3.20;;
82806;SDS011;72563;44.816;20.484;2024-03-02T11:09:29;6.35;;;2.42;;
82806;SDS011;72563;44.816;20.484;2024-03-02T11:12:16;6.35;;;2.60;;
82806;SDS011;72563;44.816;20.484;2024-03-02T11:14:48;5.75;;;2.58;;
82806;SDS011;72563;44.816;20.484;2024-03-02T11:17:17;6.30;;;2.75;;
82806;SDS011;72563;44.816;20.484;2024-03-02T11:19:43;5.55;;;2.70;;
82806;SDS011;72563;44.816;20.484;2024-03-02T11:22:11;7.13;;;2.80;;
82806;SDS011;72563;44.816;20.484;2024-03-02T11:24:37;6.22;;;3.20;;
82806;SDS011;72563;44.816;20.484;2024-03-02T11:27:04;7.28;;;2.97;;
82806;SDS011;72563;44.816;20.484;2024-03-02T11:32:05;6.22;;;2.67;;
82806;SDS011;72563;44.816;20.484;2024-03-02T11:34:38;6.13;;;2.67;;
82806;SDS011;72563;44.816;20.484;2024-03-02T11:37:10;5.88;;;2.72;;
82806;SDS011;72563;44.816;20.484;2024-03-02T11:39:37;6.97;;;3.20;;
82806;SDS011;72563;44.816;20.484;2024-03-02T11:42:07;6.97;;;3.08;;
82806;SDS011;72563;44.816;20.484;2024-03-02T11:44:36;6.18;;;2.50;;
82806;SDS011;72563;44.816;20.484;2024-03-02T11:47:06;5.88;;;2.70;;
82806;SDS011;72563;44.816;20.484;2024-03-02T11:52:06;6.05;;;2.75;;
82806;SDS011;72563;44.816;20.484;2024-03-02T11:57:04;5.93;;;2.85;;
82806;SDS011;72563;44.816;20.484;2024-03-02T11:59:31;5.95;;;2.88;;
82806;SDS011;72563;44.816;20.484;2024-03-02T12:01:57;5.50;;;2.55;;
82806;SDS011;72563;44.816;20.484;2024-03-02T12:04:24;7.20;;;2.92;;
82806;SDS011;72563;44.816;20.484;2024-03-02T12:06:57;6.32;;;2.50;;
82806;SDS011;72563;44.816;20.484;2024-03-02T12:09:25;8.52;;;2.88;;
82806;SDS011;72563;44.816;20.484;2024-03-02T12:12:04;6.50;;;2.80;;
82806;SDS011;72563;44.816;20.484;2024-03-02T12:14:31;6.50;;;2.63;;
82806;SDS011;72563;44.816;20.484;2024-03-02T12:16:58;5.75;;;2.40;;
82806;SDS011;72563;44.816;20.484;2024-03-02T12:19:27;5.28;;;2.40;;
82806;SDS011;72563;44.816;20.484;2024-03-02T12:21:55;6.13;;;2.75;;
82806;SDS011;72563;44.816;20.484;2024-03-02T12:24:24;6.72;;;2.65;;
82806;SDS011;72563;44.816;20.484;2024-03-02T12:26:53;5.80;;;2.65;;
82806;SDS011;72563;44.816;20.484;2024-03-02T12:29:19;6.65;;;2.75;;
82806;SDS011;72563;44.816;20.484;2024-03-02T12:31:49;7.32;;;2.80;;
82806;SDS011;72563;44.816;20.484;2024-03-02T12:34:18;7.35;;;3.33;;
82806;SDS011;72563;44.816;20.484;2024-03-02T12:36:47;6.63;;;3.28;;
82806;SDS011;72563;44.816;20.484;2024-03-02T12:39:17;6.20;;;2.90;;
82806;SDS011;72563;44.816;20.484;2024-03-02T12:41:44;6.00;;;2.97;;
82806;SDS011;72563;44.816;20.484;2024-03-02T12:44:11;6.45;;;3.22;;
82806;SDS011;72563;44.816;20.484;2024-03-02T12:46:37;5.97;;;3.03;;
82806;SDS011;72563;44.816;20.484;2024-03-02T12:49:10;6.90;;;3.33;;
82806;SDS011;72563;44.816;20.484;2024-03-02T12:51:40;7.38;;;2.40;;
82806;SDS011;72563;44.816;20.484;2024-03-02T12:54:07;9.07;;;3.20;;
82806;SDS011;72563;44.816;20.484;2024-03-02T12:56:37;6.88;;;2.80;;
82806;SDS011;72563;44.816;20.484;2024-03-02T12:59:04;11.95;;;3.20;;
82806;SDS011;72563;44.816;20.484;2024-03-02T13:01:30;8.75;;;3.22;;
82806;SDS011;72563;44.816;20.484;2024-03-02T13:03:57;7.25;;;3.20;;
82806;SDS011;72563;44.816;20.484;2024-03-02T13:06:24;7.75;;;2.90;;
82806;SDS011;72563;44.816;20.484;2024-03-02T13:08:53;8.70;;;3.65;;
82806;SDS011;72563;44.816;20.484;2024-03-02T13:11:19;6.38;;;2.97;;
82806;SDS011;72563;44.816;20.484;2024-03-02T13:13:46;7.05;;;2.97;;
82806;SDS011;72563;44.816;20.484;2024-03-02T13:16:12;5.70;;;3.05;;
82806;SDS011;72563;44.816;20.484;2024-03-02T13:18:38;8.05;;;3.40;;
82806;SDS011;72563;44.816;20.484;2024-03-02T13:21:08;7.05;;;3.42;;
82806;SDS011;72563;44.816;20.484;2024-03-02T13:23:34;6.97;;;3.20;;
82806;SDS011;72563;44.816;20.484;2024-03-02T13:26:00;8.18;;;3.10;;
82806;SDS011;72563;44.816;20.484;2024-03-02T13:28:26;6.25;;;2.78;;
82806;SDS011;72563;44.816;20.484;2024-03-02T13:30:52;7.32;;;3.60;;
82806;SDS011;72563;44.816;20.484;2024-03-02T13:33:17;8.13;;;3.30;;
82806;SDS011;72563;44.816;20.484;2024-03-02T13:35:48;7.03;;;3.30;;
82806;SDS011;72563;44.816;20.484;2024-03-02T13:38:18;6.45;;;3.15;;
82806;SDS011;72563;44.816;20.484;2024-03-02T13:40:44;6.80;;;3.20;;
82806;SDS011;72563;44.816;20.484;2024-03-02T13:43:10;8.95;;;3.78;;
82806;SDS011;72563;44.816;20.484;2024-03-02T13:45:38;6.93;;;3.30;;
82806;SDS011;72563;44.816;20.484;2024-03-02T13:48:04;8.20;;;3.22;;
82806;SDS011;72563;44.816;20.484;2024-03-02T13:50:30;8.32;;;4.50;;
82806;SDS011;72563;44.816;20.484;2024-03-02T13:52:56;6.82;;;3.15;;
82806;SDS011;72563;44.816;20.484;2024-03-02T13:55:22;7.05;;;3.03;;
82806;SDS011;72563;44.816;20.484;2024-03-02T13:57:48;6.90;;;3.10;;
82806;SDS011;72563;44.816;20.484;2024-03-02T14:00:16;7.78;;;3.42;;
82806;SDS011;72563;44.816;20.484;2024-03-02T14:02:43;6.60;;;2.97;;
82806;SDS011;72563;44.816;20.484;2024-03-02T14:05:08;7.97;;;3.53;;
82806;SDS011;72563;44.816;20.484;2024-03-02T14:07:37;7.95;;;3.50;;
82806;SDS011;72563;44.816;20.484;2024-03-02T14:10:03;9.02;;;3.50;;
82806;SDS011;72563;44.816;20.484;2024-03-02T14:12:29;6.25;;;3.17;;
82806;SDS011;72563;44.816;20.484;2024-03-02T14:14:55;6.90;;;2.83;;
82806;SDS011;72563;44.816;20.484;2024-03-02T14:17:27;7.47;;;3.30;;
82806;SDS011;72563;44.816;20.484;2024-03-02T14:19:53;6.40;;;3.03;;
82806;SDS011;72563;44.816;20.484;2024-03-02T14:22:22;6.47;;;2.97;;
82806;SDS011;72563;44.816;20.484;2024-03-02T14:24:47;8.05;;;3.13;;
82806;SDS011;72563;44.816;20.484;2024-03-02T14:27:14;7.88;;;3.45;;
82806;SDS011;72563;44.816;20.484;2024-03-02T14:29:40;6.80;;;3.20;;
82806;SDS011;72563;44.816;20.484;2024-03-02T14:32:07;8.15;;;3.40;;
82806;SDS011;72563;44.816;20.484;2024-03-02T14:34:33;7.57;;;3.78;;
82806;SDS011;72563;44.816;20.484;2024-03-02T14:36:59;7.32;;;3.10;;
82806;SDS011;72563;44.816;20.484;2024-03-02T14:39:25;8.45;;;3.30;;
82806;SDS011;72563;44.816;20.484;2024-03-02T14:41:51;7.10;;;3.22;;
82806;SDS011;72563;44.816;20.484;2024-03-02T14:44:17;7.93;;;2.97;;
82806;SDS011;72563;44.816;20.484;2024-03-02T14:46:43;7.43;;;3.30;;
82806;SDS011;72563;44.816;20.484;2024-03-02T14:49:11;7.55;;;3.15;;
82806;SDS011;72563;44.816;20.484;2024-03-02T14:51:38;8.85;;;3.80;;
82806;SDS011;72563;44.816;20.484;2024-03-02T14:54:04;7.03;;;3.60;;
82806;SDS011;72563;44.816;20.484;2024-03-02T14:56:33;9.57;;;3.90;;